Time;durP1;ratioP1;P1;durP2;ratioP2;P2;SDS_P1;SDS_P2;PMS_P1;PMS_P2;Temp;Humidity;BMP_temperature;BMP_pressure;BME280_temperature;BME280_humidity;BME280_pressure;Samples;Min_cycle;Max_cycle;Signal;HPM_P1;HPM_P2
2022/12/11 00:00:34;;;;;;;;;;;1.40;85.60;;;;;;9178097;19;20014;-64
2022/12/11 00:03:38;;;;;;;52.37;16.73;;;1.40;85.60;;;;;;9176402;19;19918;-66
2022/12/11 00:06:43;;;;;;;;;;;1.40;85.50;;;;;;9177816;19;20475;-65
2022/12/11 00:09:47;;;;;;;44.70;14.73;;;1.40;85.60;;;;;;9171225;19;19970;-66
2022/12/11 00:12:50;;;;;;;;;;;1.40;85.60;;;;;;9177196;19;20053;-66
2022/12/11 00:15:54;;;;;;;48.10;14.23;;;1.40;85.60;;;;;;9176437;19;20609;-66
2022/12/11 00:18:58;;;;;;;47.42;15.32;;;1.50;85.60;;;;;;9176403;19;20503;-65
2022/12/11 00:22:03;;;;;;;;;;;1.50;85.70;;;;;;9177439;19;20098;-65
2022/12/11 00:25:08;;;;;;;44.53;13.27;;;1.50;85.70;;;;;;9171355;19;19926;-66
2022/12/11 00:28:13;;;;;;;52.33;16.38;;;1.50;85.70;;;;;;9175192;19;20018;-66
2022/12/11 00:31:20;;;;;;;60.08;19.15;;;1.50;85.80;;;;;;9176089;19;20011;-66
2022/12/11 00:34:24;;;;;;;55.63;15.98;;;1.50;85.80;;;;;;9173855;19;20018;-66
2022/12/11 00:37:30;;;;;;;;;;;1.50;86.40;;;;;;9174392;19;20050;-67
2022/12/11 00:40:35;;;;;;;62.47;18.42;;;1.50;85.80;;;;;;9175601;19;19918;-66
2022/12/11 00:43:39;;;;;;;53.67;16.85;;;1.50;85.70;;;;;;9174875;19;20367;-66
2022/12/11 00:46:42;;;;;;;59.08;19.25;;;1.50;85.70;;;;;;9175896;19;20015;-66
2022/12/11 00:49:46;;;;;;;;;;;1.50;85.80;;;;;;9172984;19;20014;-66
2022/12/11 00:52:55;;;;;;;50.47;15.05;;;1.50;85.80;;;;;;9174429;19;19922;-66
2022/12/11 00:55:59;;;;;;;47.40;14.63;;;1.50;85.70;;;;;;9173522;19;20050;-66
2022/12/11 00:59:02;;;;;;;52.42;16.00;;;1.50;85.80;;;;;;9174367;19;20389;-66
2022/12/11 01:02:06;;;;;;;;;;;1.50;85.80;;;;;;9174924;19;20041;-66
2022/12/11 01:05:10;;;;;;;34.43;11.13;;;1.50;85.80;;;;;;9174599;19;19919;-66
2022/12/11 01:08:16;;;;;;;45.55;13.50;;;1.60;86.30;;;;;;9172694;19;20974;-67
2022/12/11 01:11:20;;;;;;;37.75;13.75;;;1.50;85.70;;;;;;9173780;19;20026;-66
2022/12/11 01:14:24;;;;;;;;;;;1.50;85.70;;;;;;9174992;19;20022;-65
2022/12/11 01:17:27;;;;;;;48.13;15.33;;;1.50;85.80;;;;;;9172345;19;19914;-66
2022/12/11 01:20:31;;;;;;;43.95;14.07;;;1.60;85.80;;;;;;9175280;19;20018;-66
2022/12/11 01:23:38;;;;;;;38.53;13.48;;;1.60;85.80;;;;;;9180525;19;20042;-67
2022/12/11 01:26:41;;;;;;;50.00;14.43;;;1.60;85.80;;;;;;9175505;19;20015;-66
2022/12/11 01:29:45;;;;;;;;;;;1.60;85.80;;;;;;9180469;19;20086;-66
2022/12/11 01:32:48;;;;;;;48.88;14.35;;;1.60;85.80;;;;;;9179985;19;20321;-66
2022/12/11 01:35:52;;;;;;;;;;;1.60;85.70;;;;;;9182693;19;20014;-66
2022/12/11 01:38:57;;;;;;;42.97;14.45;;;1.60;85.80;;;;;;9181595;19;19951;-66
2022/12/11 01:42:02;;;;;;;41.47;14.48;;;1.60;85.70;;;;;;9182221;19;20019;-65
2022/12/11 01:45:29;;;;;;;47.65;17.17;;;1.60;85.80;;;;;;9179767;19;20018;-65
2022/12/11 01:48:33;;;;;;;48.72;15.13;;;1.60;85.80;;;;;;9180542;19;20033;-67
2022/12/11 01:51:51;;;;;;;47.15;15.18;;;1.60;85.80;;;;;;9181140;19;20025;-67
2022/12/11 01:54:56;;;;;;;50.15;15.15;;;1.60;85.80;;;;;;9181398;19;20368;-66
2022/12/11 01:58:01;;;;;;;47.60;16.00;;;1.60;85.80;;;;;;9179505;19;20464;-67
2022/12/11 02:01:05;;;;;;;48.13;16.30;;;1.60;85.80;;;;;;9181574;19;20099;-66
2022/12/11 02:04:11;;;;;;;42.70;14.60;;;1.60;85.80;;;;;;9178813;19;20014;-66
2022/12/11 02:07:15;;;;;;;44.00;15.40;;;1.70;85.90;;;;;;9181576;19;20018;-66
2022/12/11 02:10:21;;;;;;;45.60;15.07;;;1.70;85.90;;;;;;9177094;19;20034;-66
2022/12/11 02:13:35;;;;;;;51.38;15.27;;;1.70;85.90;;;;;;9179748;19;20470;-65
2022/12/11 02:16:46;;;;;;;50.83;15.48;;;1.70;85.90;;;;;;9180146;19;20019;-67
2022/12/11 02:20:00;;;;;;;43.13;15.27;;;1.70;85.90;;;;;;9180732;19;20470;-67
2022/12/11 02:23:27;;;;;;;49.95;16.23;;;1.70;85.90;;;;;;9178980;19;20269;-66
2022/12/11 02:26:55;;;;;;;54.15;14.90;;;1.70;85.90;;;;;;9175351;19;20041;-67
2022/12/11 02:30:05;;;;;;;59.88;16.30;;;1.70;85.90;;;;;;9176550;19;20018;-66
2022/12/11 02:33:12;;;;;;;51.38;15.30;;;1.70;85.90;;;;;;9176709;19;20481;-66
2022/12/11 02:36:18;;;;;;;54.72;16.60;;;1.70;85.90;;;;;;9179841;19;20011;-67
2022/12/11 02:39:24;;;;;;;57.55;16.33;;;1.70;85.90;;;;;;9180675;19;20036;-66
2022/12/11 02:42:33;;;;;;;52.42;15.98;;;1.70;85.90;;;;;;9179247;19;20603;-66
2022/12/11 02:45:41;;;;;;;49.40;15.98;;;1.70;85.90;;;;;;9179496;19;20018;-66
2022/12/11 02:48:46;;;;;;;55.13;16.30;;;1.70;85.90;;;;;;9177755;19;20022;-67
2022/12/11 02:51:51;;;;;;;59.45;17.83;;;1.70;85.90;;;;;;9179704;19;20432;-66
2022/12/11 02:54:58;;;;;;;58.60;16.90;;;1.70;85.90;;;;;;9179541;19;20035;-66
2022/12/11 02:58:07;;;;;;;52.60;15.45;;;1.80;86.00;;;;;;9179341;19;20019;-66
2022/12/11 03:01:13;;;;;;;47.10;15.48;;;1.70;85.90;;;;;;9179097;19;20014;-66
2022/12/11 03:04:17;;;;;;;47.75;14.27;;;1.80;86.00;;;;;;9179574;19;20038;-67
2022/12/11 03:07:25;;;;;;;58.47;16.88;;;1.80;86.00;;;;;;9179542;19;20475;-66
2022/12/11 03:10:29;;;;;;;56.35;16.23;;;1.80;86.00;;;;;;9174393;19;20019;-65
2022/12/11 03:13:32;;;;;;;;;;;1.80;85.90;;;;;;9179609;19;20060;-65
2022/12/11 03:16:39;;;;;;;56.35;16.58;;;1.80;86.00;;;;;;9178244;19;19943;-67
2022/12/11 03:19:48;;;;;;;65.88;16.58;;;1.80;85.90;;;;;;9179116;19;20006;-66
2022/12/11 03:22:58;;;;;;;60.30;17.33;;;1.80;85.90;;;;;;9178471;19;20018;-71
2022/12/11 03:26:06;;;;;;;70.00;18.80;;;1.80;85.90;;;;;;9170692;19;20039;-65
2022/12/11 03:29:17;;;;;;;67.68;19.10;;;1.80;86.00;;;;;;9174071;19;20015;-66
2022/12/11 03:32:26;;;;;;;56.25;15.95;;;1.80;86.00;;;;;;9177908;19;20022;-65
2022/12/11 03:35:34;;;;;;;57.22;17.55;;;1.80;86.00;;;;;;9178846;19;20006;-67
2022/12/11 03:38:42;;;;;;;63.65;17.75;;;1.80;86.00;;;;;;9177324;19;20072;-67
2022/12/11 03:41:47;;;;;;;58.42;17.85;;;1.80;86.00;;;;;;9177300;19;20074;-66
2022/12/11 03:44:55;;;;;;;58.90;16.20;;;1.80;86.10;;;;;;9177835;19;20482;-67
2022/12/11 03:48:03;;;;;;;63.10;16.33;;;1.80;86.00;;;;;;9177834;19;20081;-66
2022/12/11 03:51:08;;;;;;;66.03;16.90;;;1.90;86.10;;;;;;9177207;19;20017;-65
2022/12/11 03:54:12;;;;;;;58.90;17.73;;;1.90;86.10;;;;;;9177173;19;20032;-64
2022/12/11 03:57:19;;;;;;;60.45;17.40;;;1.80;86.10;;;;;;9177481;19;20010;-66
2022/12/11 04:00:24;;;;;;;62.25;18.20;;;1.80;86.00;;;;;;9177395;19;20014;-66
2022/12/11 04:03:29;;;;;;;59.30;17.70;;;1.90;86.10;;;;;;9177028;19;20043;-66
2022/12/11 04:06:33;;;;;;;62.22;18.30;;;1.80;86.00;;;;;;9177324;19;20014;-66
2022/12/11 04:09:36;;;;;;;;;;;1.90;86.10;;;;;;9174755;19;20471;-65
2022/12/11 04:12:40;;;;;;;63.83;17.87;;;1.90;86.10;;;;;;9175433;19;19967;-66
2022/12/11 04:15:44;;;;;;;67.95;19.00;;;1.90;86.00;;;;;;9176416;19;20011;-66
2022/12/11 04:25:32;;;;;;;61.08;16.65;;;1.90;86.00;;;;;;9170800;19;20019;-66
2022/12/11 04:28:36;;;;;;;;;;;1.90;86.10;;;;;;9175457;19;20356;-66
2022/12/11 04:31:40;;;;;;;67.28;17.27;;;1.90;86.10;;;;;;9176753;19;20536;-66
2022/12/11 04:34:45;;;;;;;;;;;1.90;86.10;;;;;;9177596;19;20763;-66
2022/12/11 04:37:49;;;;;;;62.75;18.52;;;1.90;86.10;;;;;;9176365;19;19919;-66
2022/12/11 04:40:59;;;;;;;63.47;18.20;;;2.00;86.00;;;;;;9174765;19;20488;-66
2022/12/11 04:44:02;;;;;;;69.57;19.58;;;2.00;86.10;;;;;;9175651;19;20043;-66
2022/12/11 04:47:06;;;;;;;64.55;18.13;;;2.00;86.20;;;;;;9174875;19;20042;-66
2022/12/11 04:50:14;;;;;;;57.33;18.55;;;2.00;86.20;;;;;;9170719;19;20014;-66
2022/12/11 04:53:18;;;;;;;57.13;18.58;;;2.00;86.20;;;;;;9174763;19;20011;-66
2022/12/11 04:56:22;;;;;;;70.05;19.98;;;2.00;86.20;;;;;;9182395;19;20027;-66
2022/12/11 04:59:26;;;;;;;57.10;15.98;;;2.00;86.20;;;;;;9181657;19;20658;-66
2022/12/11 05:02:30;;;;;;;;;;;2.00;86.20;;;;;;9185047;19;20026;-66
2022/12/11 05:05:36;;;;;;;72.75;20.08;;;2.00;86.20;;;;;;9184024;19;19918;-66
2022/12/11 05:08:41;;;;;;;66.75;17.58;;;2.00;86.10;;;;;;9181883;19;20501;-66
2022/12/11 05:11:45;;;;;;;66.38;17.25;;;2.00;86.20;;;;;;9182390;19;20018;-67
2022/12/11 05:14:52;;;;;;;;;;;2.00;86.10;;;;;;9183155;19;20570;-67
2022/12/11 05:17:55;;;;;;;57.53;16.33;;;2.00;86.20;;;;;;9178422;19;19923;-67
2022/12/11 05:21:03;;;;;;;58.13;17.52;;;2.00;86.10;;;;;;9182730;19;20570;-66
2022/12/11 05:24:08;;;;;;;55.60;16.20;;;2.00;86.10;;;;;;9177934;19;20645;-66
2022/12/11 05:27:12;;;;;;;52.67;16.58;;;2.10;86.20;;;;;;9180887;19;20041;-66
2022/12/11 05:30:15;;;;;;;67.00;18.83;;;2.10;86.20;;;;;;9179780;19;20051;-66
2022/12/11 05:33:19;;;;;;;56.92;16.45;;;2.10;86.20;;;;;;9182437;19;20022;-66
2022/12/11 05:36:26;;;;;;;;;;;2.10;86.20;;;;;;9182941;19;20019;-66
2022/12/11 05:39:30;;;;;;;52.38;15.07;;;2.10;86.20;;;;;;9181157;19;19946;-67
2022/12/11 05:42:33;;;;;;;;;;;2.10;86.20;;;;;;9182383;19;20015;-66
2022/12/11 05:45:38;;;;;;;42.57;11.87;;;2.10;86.20;;;;;;9182123;19;19942;-65
2022/12/11 05:48:42;;;;;;;61.25;16.40;;;2.10;86.10;;;;;;9180526;19;20010;-67
2022/12/11 05:51:48;;;;;;;65.53;18.48;;;2.10;86.20;;;;;;9181639;19;20047;-66
2022/12/11 05:54:52;;;;;;;56.90;16.75;;;2.10;86.20;;;;;;9180383;19;20033;-67
2022/12/11 05:57:55;;;;;;;59.45;16.55;;;2.10;86.30;;;;;;9181850;19;20085;-67
2022/12/11 06:00:59;;;;;;;;;;;2.10;86.20;;;;;;9182744;19;20015;-66
2022/12/11 06:04:04;;;;;;;62.53;16.95;;;2.10;86.20;;;;;;9180782;19;19927;-66
2022/12/11 06:07:09;;;;;;;56.67;17.65;;;2.10;86.20;;;;;;9178335;19;20030;-67
2022/12/11 06:10:13;;;;;;;57.90;17.25;;;2.10;86.20;;;;;;9178662;19;20031;-66
2022/12/11 06:13:17;;;;;;;58.60;16.45;;;2.10;86.80;;;;;;9180307;19;20022;-66
2022/12/11 06:16:22;;;;;;;50.88;16.42;;;2.20;86.30;;;;;;9180299;19;20014;-66
2022/12/11 06:19:25;;;;;;;54.17;16.67;;;2.10;86.30;;;;;;9181056;19;20023;-66
2022/12/11 06:22:31;;;;;;;57.17;15.25;;;2.10;86.20;;;;;;9180537;19;20022;-65
2022/12/11 06:25:35;;;;;;;54.65;15.95;;;2.10;86.30;;;;;;9175152;19;20017;-67
2022/12/11 06:28:39;;;;;;;58.30;16.20;;;2.20;86.30;;;;;;9179437;19;20019;-66
2022/12/11 06:31:43;;;;;;;58.65;15.77;;;2.20;86.30;;;;;;9180249;19;20015;-66
2022/12/11 06:34:47;;;;;;;47.72;16.75;;;2.20;86.30;;;;;;9179576;19;20018;-67
2022/12/11 06:37:53;;;;;;;;;;;2.10;86.30;;;;;;9179289;19;20010;-67
2022/12/11 06:40:57;;;;;;;60.78;15.80;;;2.20;86.30;;;;;;9179646;19;20346;-66
2022/12/11 06:44:01;;;;;;;59.50;17.17;;;2.20;86.30;;;;;;9180201;19;20022;-66
2022/12/11 06:47:05;;;;;;;54.00;14.70;;;2.20;86.30;;;;;;9178500;19;20019;-66
2022/12/11 06:50:09;;;;;;;52.58;17.08;;;2.20;86.40;;;;;;9177266;19;20018;-67
2022/12/11 06:53:16;;;;;;;48.08;15.50;;;2.20;86.30;;;;;;9179376;19;20014;-66
2022/12/11 06:56:20;;;;;;;59.08;17.80;;;2.20;86.30;;;;;;9179676;19;20448;-66
2022/12/11 06:59:24;;;;;;;52.33;15.90;;;2.20;86.90;;;;;;9179895;19;20010;-67
2022/12/11 07:02:27;;;;;;;;;;;2.20;86.40;;;;;;9179408;19;20336;-67
2022/12/11 07:05:32;;;;;;;42.27;12.23;;;2.20;86.30;;;;;;9177215;19;19922;-66
2022/12/11 07:08:38;;;;;;;53.35;14.77;;;2.20;86.30;;;;;;9178402;19;20523;-66
2022/12/11 07:11:41;;;;;;;63.63;18.02;;;2.20;86.30;;;;;;9175803;19;20545;-67
2022/12/11 07:14:45;;;;;;;48.17;16.55;;;2.20;86.30;;;;;;9178393;19;20022;-67
2022/12/11 07:17:49;;;;;;;53.80;16.73;;;2.20;86.30;;;;;;9174905;19;20026;-67
2022/12/11 07:20:52;;;;;;;;;;;2.20;86.30;;;;;;9179257;19;20014;-66
2022/12/11 07:23:58;;;;;;;40.65;12.23;;;2.20;86.30;;;;;;9173815;19;20458;-66
2022/12/11 07:27:02;;;;;;;52.08;16.25;;;2.30;86.30;;;;;;9177153;19;20023;-66
2022/12/11 07:30:06;;;;;;;;;;;2.30;86.40;;;;;;9176451;19;20369;-66
2022/12/11 07:33:10;;;;;;;54.92;15.82;;;2.20;86.30;;;;;;9175064;19;19927;-66
2022/12/11 07:36:15;;;;;;;56.85;15.93;;;2.20;86.30;;;;;;9176799;19;20014;-66
2022/12/11 07:39:20;;;;;;;55.88;15.75;;;2.20;86.30;;;;;;9178482;19;20018;-66
2022/12/11 07:42:24;;;;;;;53.78;16.05;;;2.30;86.40;;;;;;9177186;19;20031;-66
2022/12/11 07:45:28;;;;;;;;;;;2.30;86.40;;;;;;9175533;19;20033;-66
2022/12/11 07:48:32;;;;;;;59.80;15.13;;;2.30;86.40;;;;;;9177134;19;19926;-66
2022/12/11 07:51:37;;;;;;;55.22;15.77;;;2.30;86.40;;;;;;9177938;19;20022;-66
2022/12/11 07:54:43;;;;;;;52.03;17.17;;;2.30;86.40;;;;;;9177576;19;20044;-66
2022/12/11 07:57:46;;;;;;;44.58;15.68;;;2.30;86.40;;;;;;9176974;19;20015;-66
2022/12/11 08:00:50;;;;;;;56.47;15.60;;;2.30;86.40;;;;;;9175866;19;20927;-66
2022/12/11 08:03:55;;;;;;;47.67;14.07;;;2.30;86.40;;;;;;9174745;19;20023;-66
2022/12/11 08:06:59;;;;;;;42.50;13.75;;;2.30;86.40;;;;;;9165981;19;20018;-65
2022/12/11 08:10:06;;;;;;;48.60;15.57;;;2.30;86.50;;;;;;9170707;19;20018;-66
2022/12/11 08:13:10;;;;;;;46.45;14.40;;;2.30;86.50;;;;;;9165841;19;20056;-66
2022/12/11 08:16:16;;;;;;;51.50;14.30;;;2.30;86.50;;;;;;9169922;19;20022;-65
2022/12/11 08:19:20;;;;;;;59.95;18.60;;;2.30;86.40;;;;;;9176639;19;20018;-66
2022/12/11 08:22:24;;;;;;;;;;;2.40;86.50;;;;;;9168661;19;20518;-65
2022/12/11 08:25:30;;;;;;;50.42;14.13;;;2.30;86.40;;;;;;9168725;19;19952;-66
2022/12/11 08:28:34;;;;;;;42.13;14.43;;;2.40;86.50;;;;;;9171979;19;20029;-65
2022/12/11 08:31:37;;;;;;;53.25;14.57;;;2.30;86.40;;;;;;9183156;19;20044;-67
2022/12/11 08:34:41;;;;;;;50.00;14.48;;;2.40;86.50;;;;;;9177912;19;20657;-66
2022/12/11 08:37:45;;;;;;;;;;;2.40;86.50;;;;;;9177988;19;20053;-65
2022/12/11 08:40:51;;;;;;;54.67;16.05;;;2.40;86.50;;;;;;9178915;19;19950;-65
2022/12/11 08:43:56;;;;;;;64.75;16.00;;;2.40;86.40;;;;;;9183326;19;20023;-66
2022/12/11 08:47:00;;;;;;;38.28;14.00;;;2.40;86.40;;;;;;9177499;19;20030;-66
2022/12/11 08:50:03;;;;;;;;;;;2.40;86.40;;;;;;9177963;19;20048;-66
2022/12/11 08:53:07;;;;;;;50.73;16.20;;;2.40;86.50;;;;;;9176077;19;20336;-66
2022/12/11 08:56:14;;;;;;;42.25;14.57;;;2.40;86.40;;;;;;9175077;19;20023;-66
2022/12/11 08:59:18;;;;;;;51.15;15.35;;;2.40;86.40;;;;;;9177825;19;20025;-66
2022/12/11 09:02:22;;;;;;;54.80;14.68;;;2.40;86.50;;;;;;9175165;19;20026;-66
2022/12/11 09:05:26;;;;;;;48.25;13.90;;;2.40;86.40;;;;;;9174397;19;20026;-65
2022/12/11 09:08:30;;;;;;;47.03;14.98;;;2.40;86.50;;;;;;9175082;19;20483;-66
2022/12/11 09:11:36;;;;;;;;;;;2.40;86.50;;;;;;9183754;19;20352;-67
2022/12/11 09:14:40;;;;;;;50.17;15.10;;;2.40;86.50;;;;;;9181709;19;19974;-66
2022/12/11 09:17:44;;;;;;;46.67;15.20;;;2.40;86.40;;;;;;9179870;19;20025;-67
2022/12/11 09:20:48;;;;;;;48.40;15.07;;;2.50;86.50;;;;;;9182991;19;20074;-66
2022/12/11 09:23:54;;;;;;;48.92;15.02;;;2.40;86.50;;;;;;9182804;19;20021;-66
2022/12/11 09:27:00;;;;;;;52.35;15.07;;;2.50;86.50;;;;;;9181298;19;20015;-66
2022/12/11 09:30:04;;;;;;;48.55;15.45;;;2.50;86.60;;;;;;9179615;19;20046;-65
2022/12/11 09:33:07;;;;;;;51.97;17.38;;;2.50;86.50;;;;;;9181730;19;20015;-67
2022/12/11 09:36:11;;;;;;;;;;;2.50;86.60;;;;;;9183167;19;20594;-66
2022/12/11 09:39:16;;;;;;;52.70;16.02;;;2.50;86.60;;;;;;9182324;19;19923;-67
2022/12/11 09:42:27;;;;;;;49.55;14.77;;;2.50;86.50;;;;;;9181119;19;20014;-65
2022/12/11 09:45:31;;;;;;;51.65;15.57;;;2.50;86.50;;;;;;9179918;19;20665;-66
2022/12/11 09:48:35;;;;;;;44.58;15.25;;;2.50;86.60;;;;;;9181148;19;20047;-67
2022/12/11 09:51:43;;;;;;;51.65;16.92;;;2.50;86.60;;;;;;9181617;19;20086;-67
2022/12/11 09:54:51;;;;;;;48.30;13.95;;;2.50;86.60;;;;;;9180945;19;20021;-67
2022/12/11 09:58:06;;;;;;;47.05;14.20;;;2.50;86.60;;;;;;9176012;19;20022;-67
2022/12/11 10:01:15;;;;;;;50.55;15.40;;;2.50;86.60;;;;;;9173212;19;20468;-66
2022/12/11 10:04:32;;;;;;;45.90;15.48;;;2.50;86.60;;;;;;9177776;19;20411;-67
2022/12/11 10:07:42;;;;;;;48.22;14.65;;;2.50;86.60;;;;;;9174552;19;20026;-65
2022/12/11 10:10:53;;;;;;;48.65;15.50;;;2.50;86.60;;;;;;9176636;19;20421;-68
2022/12/11 10:14:07;;;;;;;45.05;15.00;;;2.50;86.60;;;;;;9180043;19;20022;-67
2022/12/11 10:17:14;;;;;;;53.22;17.13;;;2.50;86.60;;;;;;9178754;19;20030;-67
2022/12/11 10:20:25;;;;;;;49.53;17.13;;;2.60;86.70;;;;;;9180452;19;20367;-66
2022/12/11 10:23:35;;;;;;;58.08;17.50;;;2.60;86.60;;;;;;9180148;19;20101;-67
2022/12/11 10:26:40;;;;;;;52.50;16.23;;;2.60;86.60;;;;;;9174973;19;20014;-67
2022/12/11 10:29:46;;;;;;;47.88;15.68;;;2.60;86.60;;;;;;9178808;19;20022;-67
2022/12/11 10:32:58;;;;;;;59.28;17.52;;;2.60;86.60;;;;;;9179974;19;20026;-67
2022/12/11 10:36:02;;;;;;;49.03;15.85;;;2.60;86.60;;;;;;9180545;19;20014;-66
2022/12/11 10:39:14;;;;;;;50.28;16.52;;;2.60;86.60;;;;;;9180121;19;20022;-66
2022/12/11 10:42:21;;;;;;;49.08;16.33;;;2.60;86.60;;;;;;9179564;19;20014;-65
2022/12/11 10:45:26;;;;;;;51.20;15.77;;;2.60;87.20;;;;;;9179209;19;20038;-67
2022/12/11 10:48:30;;;;;;;47.72;15.57;;;2.60;86.60;;;;;;9179408;19;20010;-67
2022/12/11 10:51:35;;;;;;;;;;;2.60;86.60;;;;;;9174427;19;20707;-67
2022/12/11 10:54:41;;;;;;;48.80;16.20;;;2.60;86.60;;;;;;9179272;19;19955;-67
2022/12/11 10:57:46;;;;;;;46.58;16.35;;;2.70;86.60;;;;;;9179039;19;20019;-68
2022/12/11 11:01:05;;;;;;;49.63;17.17;;;2.70;86.60;;;;;;9179901;19;20038;-67
2022/12/11 11:04:25;;;;;;;52.75;15.77;;;2.70;86.70;;;;;;9178617;19;20015;-67
2022/12/11 11:07:32;;;;;;;57.13;18.23;;;2.70;86.70;;;;;;9179292;19;20358;-67
2022/12/11 11:10:35;;;;;;;54.33;18.13;;;2.70;86.70;;;;;;9176409;19;20535;-66
2022/12/11 11:13:39;;;;;;;45.65;15.90;;;2.70;86.70;;;;;;9178450;19;20018;-67
2022/12/11 11:16:46;;;;;;;;;;;2.70;86.70;;;;;;9177490;19;20018;-67
2022/12/11 11:19:50;;;;;;;58.60;18.65;;;2.70;86.70;;;;;;9178062;19;19919;-66
2022/12/11 11:22:56;;;;;;;55.25;18.10;;;2.70;86.60;;;;;;9178708;19;20042;-67
2022/12/11 11:26:02;;;;;;;52.40;16.30;;;2.70;86.60;;;;;;9172802;19;20030;-67
2022/12/11 11:29:07;;;;;;;42.83;15.50;;;2.70;86.70;;;;;;9177444;19;20029;-67
2022/12/11 11:32:21;;;;;;;52.92;17.52;;;2.70;86.70;;;;;;9174382;19;20022;-67
2022/12/11 11:35:27;;;;;;;46.08;16.90;;;2.70;86.70;;;;;;9178313;19;20026;-67
2022/12/11 11:38:35;;;;;;;42.70;15.68;;;2.70;86.70;;;;;;9178556;19;20018;-67
2022/12/11 11:41:45;;;;;;;55.38;16.90;;;2.70;86.70;;;;;;9177707;19;20044;-66
2022/12/11 11:45:00;;;;;;;52.22;17.92;;;2.70;87.30;;;;;;9176558;19;20039;-66
2022/12/11 11:48:17;;;;;;;53.47;16.85;;;2.70;86.70;;;;;;9177114;19;20018;-66
2022/12/11 11:51:28;;;;;;;55.60;17.58;;;2.70;86.70;;;;;;9172426;19;20333;-66
2022/12/11 11:54:35;;;;;;;50.05;16.95;;;2.70;86.70;;;;;;9177280;19;20026;-67
2022/12/11 11:57:44;;;;;;;50.95;16.35;;;2.70;86.70;;;;;;9177796;19;20010;-67
2022/12/11 12:00:48;;;;;;;52.70;17.15;;;2.70;86.70;;;;;;9177351;19;20038;-67
2022/12/11 12:03:53;;;;;;;46.22;15.90;;;2.70;86.70;;;;;;9176914;19;20083;-67
2022/12/11 12:07:17;;;;;;;50.85;16.60;;;2.70;86.70;;;;;;9176481;19;20011;-67
2022/12/11 12:10:27;;;;;;;45.78;16.67;;;2.70;86.70;;;;;;9175628;19;20429;-67
2022/12/11 12:13:41;;;;;;;42.42;14.63;;;2.70;86.70;;;;;;9176345;19;20023;-67
2022/12/11 12:17:06;;;;;;;34.50;14.32;;;2.70;86.60;;;;;;9175521;19;20022;-66
2022/12/11 12:20:25;;;;;;;35.42;12.80;;;2.70;86.60;;;;;;9176569;19;20041;-66
2022/12/11 12:23:57;;;;;;;33.33;13.43;;;2.70;86.60;;;;;;9176285;19;20475;-67
2022/12/11 12:27:05;;;;;;;29.63;12.68;;;2.70;86.70;;;;;;9175487;19;20026;-67
2022/12/11 12:30:37;;;;;;;40.20;16.02;;;2.70;86.60;;;;;;9174338;19;20475;-67
2022/12/11 12:33:53;;;;;;;32.45;13.25;;;2.70;86.60;;;;;;9175652;19;20479;-66
2022/12/11 12:37:11;;;;;;;36.22;14.38;;;2.70;86.60;;;;;;9174099;19;20022;-67
2022/12/11 12:40:21;;;;;;;29.65;13.30;;;2.80;86.70;;;;;;9173495;19;20018;-67
2022/12/11 12:43:43;;;;;;;34.22;13.88;;;2.70;86.70;;;;;;9160427;19;20502;-67
2022/12/11 12:46:59;;;;;;;34.72;13.15;;;2.80;86.70;;;;;;9163676;19;20014;-66
2022/12/11 12:50:06;;;;;;;33.85;13.35;;;2.80;86.70;;;;;;9163061;19;20047;-67
2022/12/11 12:53:18;;;;;;;33.80;13.32;;;2.70;86.60;;;;;;9163496;19;20019;-67
2022/12/11 12:56:23;;;;;;;33.60;14.23;;;2.80;86.70;;;;;;9167977;19;20479;-67
2022/12/11 12:59:28;;;;;;;30.00;13.63;;;2.80;86.70;;;;;;9164363;19;20029;-67
2022/12/11 13:02:33;;;;;;;34.20;13.95;;;2.80;86.60;;;;;;9163045;19;20524;-67
2022/12/11 13:05:37;;;;;;;39.50;15.18;;;2.80;86.60;;;;;;9164277;19;20018;-66
2022/12/11 13:08:44;;;;;;;;;;;2.80;86.60;;;;;;9164215;19;20645;-67
2022/12/11 13:11:52;;;;;;;39.72;16.08;;;2.80;86.60;;;;;;9161758;19;19921;-67
2022/12/11 13:14:58;;;;;;;34.95;15.38;;;2.80;86.50;;;;;;9169673;19;20527;-67
2022/12/11 13:18:04;;;;;;;35.03;15.38;;;2.80;86.50;;;;;;9173946;19;20495;-67
2022/12/11 13:21:30;;;;;;;34.33;13.68;;;2.80;86.50;;;;;;9175449;19;20022;-67
2022/12/11 13:24:46;;;;;;;33.20;14.40;;;2.80;86.50;;;;;;9172321;19;20018;-67
2022/12/11 13:27:50;;;;;;;29.10;13.65;;;2.80;86.60;;;;;;9173411;19;20400;-67
2022/12/11 13:31:00;;;;;;;35.35;15.43;;;2.80;86.60;;;;;;9173844;19;20106;-67
2022/12/11 13:34:25;;;;;;;41.10;15.25;;;2.80;86.60;;;;;;9176280;19;20015;-67
2022/12/11 13:37:33;;;;;;;34.30;14.63;;;2.80;86.50;;;;;;9174079;19;20508;-67
2022/12/11 13:40:42;;;;;;;35.20;14.00;;;2.80;86.50;;;;;;9175946;19;20648;-67
2022/12/11 13:43:49;;;;;;;36.03;14.85;;;2.80;86.50;;;;;;9171407;19;20591;-67
2022/12/11 13:46:55;;;;;;;39.50;15.20;;;2.90;86.60;;;;;;9175187;19;20373;-67
2022/12/11 13:50:13;;;;;;;31.40;13.13;;;2.90;86.60;;;;;;9175218;19;20038;-67
2022/12/11 13:53:19;;;;;;;36.20;14.45;;;2.80;86.60;;;;;;9175042;19;20015;-67
2022/12/11 13:56:24;;;;;;;36.85;14.05;;;2.80;86.60;;;;;;9175243;19;20026;-66
2022/12/11 13:59:32;;;;;;;35.97;14.30;;;2.90;86.60;;;;;;9175085;19;20018;-66
2022/12/11 14:02:39;;;;;;;32.78;14.27;;;2.90;86.60;;;;;;9174223;19;20015;-66
2022/12/11 14:05:43;;;;;;;28.85;13.57;;;2.80;86.50;;;;;;9173726;19;20045;-66
2022/12/11 14:08:50;;;;;;;37.42;13.18;;;2.90;86.50;;;;;;9172447;19;20015;-66
2022/12/11 14:12:00;;;;;;;29.60;12.80;;;2.80;86.50;;;;;;9170695;19;20019;-66
2022/12/11 14:15:06;;;;;;;33.55;13.95;;;2.80;86.50;;;;;;9171845;19;20018;-66
2022/12/11 14:18:17;;;;;;;26.02;11.15;;;2.80;86.50;;;;;;9169062;19;20051;-67
2022/12/11 14:21:23;;;;;;;27.85;11.85;;;2.80;86.50;;;;;;9167124;19;20019;-66
2022/12/11 14:24:27;;;;;;;25.30;12.63;;;2.80;86.50;;;;;;9163629;19;20018;-66
2022/12/11 14:27:34;;;;;;;25.63;11.88;;;2.80;86.50;;;;;;9164481;19;20859;-66
2022/12/11 14:30:46;;;;;;;30.42;13.25;;;2.80;86.50;;;;;;9167392;19;20339;-66
2022/12/11 14:33:54;;;;;;;28.80;13.00;;;2.80;86.50;;;;;;9169644;19;20022;-66
2022/12/11 14:36:59;;;;;;;29.85;13.85;;;2.80;86.50;;;;;;9170207;19;20010;-66
2022/12/11 14:40:09;;;;;;;30.48;13.85;;;2.80;86.50;;;;;;9172884;19;20019;-66
2022/12/11 14:43:21;;;;;;;29.92;13.70;;;2.80;86.50;;;;;;9178809;19;20649;-66
2022/12/11 14:46:29;;;;;;;30.45;12.88;;;2.80;86.40;;;;;;9175695;19;20022;-66
2022/12/11 14:49:47;;;;;;;28.38;13.05;;;2.80;86.40;;;;;;9163255;19;20074;-66
2022/12/11 14:52:54;;;;;;;24.42;11.02;;;2.80;86.40;;;;;;9172008;19;20022;-66
2022/12/11 14:56:02;;;;;;;25.45;12.05;;;2.80;86.40;;;;;;9171011;19;20028;-66
2022/12/11 14:59:18;;;;;;;27.25;12.38;;;2.80;86.40;;;;;;9172355;19;20026;-66
2022/12/11 15:02:28;;;;;;;27.75;12.18;;;2.80;86.40;;;;;;9172166;19;20043;-66
2022/12/11 15:05:36;;;;;;;32.88;13.98;;;2.80;86.40;;;;;;9170915;19;20014;-66
2022/12/11 15:08:44;;;;;;;26.58;12.82;;;2.80;86.40;;;;;;9172666;19;20010;-66
2022/12/11 15:11:49;;;;;;;28.45;14.02;;;2.70;86.30;;;;;;9169222;19;20029;-66
2022/12/11 15:14:57;;;;;;;27.13;13.55;;;2.70;86.40;;;;;;9170543;19;20018;-66
2022/12/11 15:18:07;;;;;;;26.17;13.20;;;2.70;86.40;;;;;;9170186;19;20033;-66
2022/12/11 15:21:12;;;;;;;26.23;12.90;;;2.70;86.40;;;;;;9169594;19;20559;-66
2022/12/11 15:24:37;;;;;;;29.35;13.00;;;2.70;86.40;;;;;;9166219;19;20475;-66
2022/12/11 15:27:41;;;;;;;28.02;11.95;;;2.70;86.40;;;;;;9170390;19;20026;-66
2022/12/11 15:30:57;;;;;;;26.05;11.88;;;2.70;86.30;;;;;;9170542;19;20030;-66
2022/12/11 15:34:01;;;;;;;26.88;13.48;;;2.70;86.30;;;;;;9167071;19;20078;-66
2022/12/11 15:37:05;;;;;;;29.67;12.40;;;2.70;86.40;;;;;;9163499;19;20018;-66
2022/12/11 15:40:10;;;;;;;;;;;2.60;86.20;;;;;;9164828;19;20652;-66
2022/12/11 15:43:14;;;;;;;33.30;13.82;;;2.60;86.20;;;;;;9163642;19;20255;-66
2022/12/11 15:46:20;;;;;;;27.67;14.18;;;2.60;86.20;;;;;;9167503;19;20043;-66
2022/12/11 15:49:24;;;;;;;29.83;13.68;;;2.60;86.20;;;;;;9161413;19;20030;-65
2022/12/11 15:52:28;;;;;;;;;;;2.60;86.20;;;;;;9160636;19;20061;-65
2022/12/11 15:55:33;;;;;;;28.00;13.65;;;2.60;86.30;;;;;;9172187;19;19922;-66
2022/12/11 15:58:37;;;;;;;28.33;12.63;;;2.60;86.20;;;;;;9169918;19;20519;-65
2022/12/11 16:01:43;;;;;;;;;;;2.60;86.30;;;;;;9166728;19;20018;-66
2022/12/11 16:04:46;;;;;;;24.80;12.60;;;2.60;86.20;;;;;;9164477;19;20000;-66
2022/12/11 16:07:53;;;;;;;29.92;14.00;;;2.60;86.20;;;;;;9166968;19;20018;-66
2022/12/11 16:10:57;;;;;;;26.63;13.60;;;2.60;86.20;;;;;;9164567;19;20023;-67
2022/12/11 16:14:04;;;;;;;27.02;14.00;;;2.60;86.20;;;;;;9166974;19;20025;-67
2022/12/11 16:17:13;;;;;;;30.80;13.05;;;2.60;86.20;;;;;;9174290;19;20026;-67
2022/12/11 16:20:17;;;;;;;28.98;13.25;;;2.60;86.10;;;;;;9174980;19;20052;-65